Time;durP1;ratioP1;P1;durP2;ratioP2;P2;SDS_P1;SDS_P2;PMS_P1;PMS_P2;Temp;Humidity;BMP_temperature;BMP_pressure;BME280_temperature;BME280_humidity;BME280_pressure;Samples;Min_cycle;Max_cycle;Signal;HPM_P1;HPM_P2
2022/12/21 00:01:11;;;;;;;4.17;3.67;;;;;;;;;;4947374;28;20307;-64
2022/12/21 00:03:38;;;;;;;5.87;4.80;;;;;;;;;;4940962;28;20307;-64
2022/12/21 00:06:06;;;;;;;4.60;4.20;;;;;;;;;;4948329;28;20291;-64
2022/12/21 00:08:41;;;;;;;4.63;4.20;;;;;;;;;;4961824;28;20689;-64
2022/12/21 00:11:10;;;;;;;4.37;3.97;;;;;;;;;;4965821;23;20372;-70
2022/12/21 00:13:37;;;;;;;5.03;4.03;;;;;;;;;;4903748;28;20225;-70
2022/12/21 00:16:09;;;;;;;4.27;3.60;;;;;;;;;;4902697;28;20238;-72
2022/12/21 00:18:37;;;;;;;5.67;4.30;;;;;;;;;;4899277;28;20394;-70
2022/12/21 00:21:06;;;;;;;5.63;4.00;;;;;;;;;;4914257;28;20230;-70
2022/12/21 00:23:33;;;;;;;6.10;4.50;;;;;;;;;;4918451;28;20201;-70
2022/12/21 00:26:01;;;;;;;4.97;4.47;;;;;;;;;;4921576;28;20207;-69
2022/12/21 00:28:29;;;;;;;5.20;4.53;;;;;;;;;;4922649;28;20212;-70
2022/12/21 00:31:03;;;;;;;6.60;5.70;;;;;;;;;;4920092;28;20237;-70
2022/12/21 00:33:30;;;;;;;7.07;4.63;;;;;;;;;;4926108;28;20211;-70
2022/12/21 00:36:00;;;;;;;6.60;5.17;;;;;;;;;;4915347;28;20336;-71
2022/12/21 00:38:28;;;;;;;5.53;5.03;;;;;;;;;;4922055;28;20237;-70
2022/12/21 00:40:59;;;;;;;6.70;5.13;;;;;;;;;;4911242;28;20236;-71
2022/12/21 00:43:26;;;;;;;6.77;4.77;;;;;;;;;;4916421;28;20878;-72
2022/12/21 00:45:53;;;;;;;6.77;5.30;;;;;;;;;;4894874;28;22224;-70
2022/12/21 00:48:21;;;;;;;7.07;5.30;;;;;;;;;;4925476;28;20209;-70
2022/12/21 00:50:48;;;;;;;5.80;5.23;;;;;;;;;;4920956;28;20235;-70
2022/12/21 00:53:16;;;;;;;5.30;4.80;;;;;;;;;;4951843;28;20236;-71
2022/12/21 00:55:56;;;;;;;7.30;5.47;;;;;;;;;;4961089;28;20208;-70
2022/12/21 00:58:24;;;;;;;5.40;4.87;;;;;;;;;;4956501;28;20734;-71
2022/12/21 01:00:52;;;;;;;6.87;5.27;;;;;;;;;;4948511;28;20256;-71
2022/12/21 01:03:20;;;;;;;6.10;4.90;;;;;;;;;;4918057;28;22015;-72
2022/12/21 01:05:47;;;;;;;6.60;5.50;;;;;;;;;;4916691;28;20264;-70
2022/12/21 01:08:16;;;;;;;6.20;5.60;;;;;;;;;;4903673;28;20235;-70
2022/12/21 01:10:43;;;;;;;7.90;5.70;;;;;;;;;;4920735;28;20311;-71
2022/12/21 01:13:11;;;;;;;8.93;5.67;;;;;;;;;;4922088;28;20220;-70
2022/12/21 01:15:43;;;;;;;7.30;5.07;;;;;;;;;;4920184;28;20216;-71
2022/12/21 01:18:11;;;;;;;11.70;8.20;;;;;;;;;;4923387;28;20224;-71
2022/12/21 01:20:41;;;;;;;18.83;11.93;;;;;;;;;;4919948;28;20608;-70
2022/12/21 01:23:09;;;;;;;19.50;12.43;;;;;;;;;;4933202;28;20505;-70
2022/12/21 01:25:36;;;;;;;10.27;7.50;;;;;;;;;;4922432;28;20401;-70
2022/12/21 01:28:03;;;;;;;8.63;5.93;;;;;;;;;;4923107;28;21030;-70
2022/12/21 01:30:30;;;;;;;7.27;5.60;;;;;;;;;;4920778;28;20225;-71
2022/12/21 01:32:58;;;;;;;6.67;5.47;;;;;;;;;;4957230;28;20825;-71
2022/12/21 01:35:25;;;;;;;8.17;5.30;;;;;;;;;;4956818;28;20272;-70
2022/12/21 01:37:52;;;;;;;6.67;5.00;;;;;;;;;;4967746;28;20602;-71
2022/12/21 01:40:19;;;;;;;8.73;6.13;;;;;;;;;;4963469;28;20224;-71
2022/12/21 01:42:47;;;;;;;6.80;5.73;;;;;;;;;;4965416;28;20236;-71
2022/12/21 01:45:14;;;;;;;9.23;6.33;;;;;;;;;;4930891;28;20212;-71
2022/12/21 01:47:44;;;;;;;7.23;6.00;;;;;;;;;;4921478;28;20219;-72
2022/12/21 01:50:20;;;;;;;8.47;6.17;;;;;;;;;;4913436;28;20236;-71
2022/12/21 01:52:48;;;;;;;10.53;6.50;;;;;;;;;;4930366;28;20220;-71
2022/12/21 01:55:15;;;;;;;7.97;5.97;;;;;;;;;;4922144;28;20206;-71
2022/12/21 01:57:43;;;;;;;13.03;7.70;;;;;;;;;;4916229;28;25016;-71
2022/12/21 02:00:10;;;;;;;10.23;7.03;;;;;;;;;;4921498;28;20231;-71
2022/12/21 02:02:39;;;;;;;6.53;5.80;;;;;;;;;;4914400;28;20209;-71
2022/12/21 02:05:13;;;;;;;7.73;5.67;;;;;;;;;;4911650;28;20208;-70
2022/12/21 02:07:43;;;;;;;6.70;5.50;;;;;;;;;;4886958;28;21615;-70
2022/12/21 02:10:10;;;;;;;8.10;6.73;;;;;;;;;;4884524;28;20243;-70
2022/12/21 02:12:38;;;;;;;8.40;6.33;;;;;;;;;;4897127;28;20225;-70
2022/12/21 02:15:05;;;;;;;7.23;6.07;;;;;;;;;;4898437;28;20208;-71
2022/12/21 02:17:40;;;;;;;8.77;5.20;;;;;;;;;;4892560;28;20361;-71
2022/12/21 02:20:17;;;;;;;6.57;5.40;;;;;;;;;;4902874;28;21394;-70
2022/12/21 02:23:07;;;;;;;6.83;5.27;;;;;;;;;;4903590;28;20597;-72
2022/12/21 02:25:37;;;;;;;5.70;5.10;;;;;;;;;;4889509;28;20214;-70
2022/12/21 02:28:21;;;;;;;6.40;5.60;;;;;;;;;;4903690;28;22012;-70
2022/12/21 02:30:51;;;;;;;6.23;5.60;;;;;;;;;;4901373;28;21347;-70
2022/12/21 02:33:24;;;;;;;9.17;5.23;;;;;;;;;;4906637;28;20276;-70
2022/12/21 02:36:02;;;;;;;6.83;6.07;;;;;;;;;;4905199;28;20291;-71
2022/12/21 02:38:30;;;;;;;8.60;5.80;;;;;;;;;;4923664;28;20224;-71
2022/12/21 02:41:08;;;;;;;9.73;5.63;;;;;;;;;;4915240;28;20679;-70
2022/12/21 02:46:24;;;;;;;7.43;5.30;;;;;;;;;;4924254;28;20249;-69
2022/12/21 02:49:01;;;;;;;5.20;4.70;;;;;;;;;;4923000;28;20219;-70
2022/12/21 02:51:37;;;;;;;5.33;4.83;;;;;;;;;;4929113;28;20232;-71
2022/12/21 02:54:04;;;;;;;6.70;5.23;;;;;;;;;;4952057;28;20211;-71
2022/12/21 02:56:31;;;;;;;5.30;4.80;;;;;;;;;;4952840;28;20205;-71
2022/12/21 02:58:59;;;;;;;6.93;5.83;;;;;;;;;;4955763;28;20253;-70
2022/12/21 03:01:45;;;;;;;8.87;7.33;;;;;;;;;;4960857;28;20914;-70
2022/12/21 03:04:29;;;;;;;11.33;8.50;;;;;;;;;;4933160;28;20201;-71
2022/12/21 03:06:56;;;;;;;10.17;7.70;;;;;;;;;;4920801;28;20692;-70
2022/12/21 03:09:23;;;;;;;11.23;7.70;;;;;;;;;;4914531;28;20212;-71
2022/12/21 03:12:23;;;;;;;8.40;6.63;;;;;;;;;;4914278;28;21366;-71
2022/12/21 03:14:55;;;;;;;8.73;7.50;;;;;;;;;;4885409;28;20209;-71
2022/12/21 03:17:23;;;;;;;7.03;6.23;;;;;;;;;;4920817;28;20220;-70
2022/12/21 03:20:00;;;;;;;6.20;5.63;;;;;;;;;;4921913;28;20234;-71
2022/12/21 03:22:32;;;;;;;9.23;6.73;;;;;;;;;;4919502;28;20232;-69
2022/12/21 03:25:14;;;;;;;7.77;6.43;;;;;;;;;;4920934;28;20306;-70
2022/12/21 03:27:43;;;;;;;6.93;5.77;;;;;;;;;;4923071;28;20212;-69
2022/12/21 03:30:16;;;;;;;7.00;5.70;;;;;;;;;;4924166;28;20243;-70
2022/12/21 03:33:01;;;;;;;7.00;5.50;;;;;;;;;;4955865;28;20359;-69
2022/12/21 03:35:40;;;;;;;9.40;5.50;;;;;;;;;;4959810;28;20201;-69
2022/12/21 03:38:10;;;;;;;6.13;5.53;;;;;;;;;;4960209;28;20323;-69
2022/12/21 03:40:38;;;;;;;8.13;5.87;;;;;;;;;;4955061;28;20940;-69
2022/12/21 03:43:12;;;;;;;8.43;5.93;;;;;;;;;;4920812;28;26966;-67
2022/12/21 03:45:41;;;;;;;7.00;5.57;;;;;;;;;;4926419;28;20599;-69
2022/12/21 03:48:13;;;;;;;6.80;5.57;;;;;;;;;;4919231;28;20679;-68
2022/12/21 03:50:44;;;;;;;5.90;5.30;;;;;;;;;;4929066;28;20243;-69
2022/12/21 03:53:33;;;;;;;7.60;5.73;;;;;;;;;;4925353;28;20232;-69
2022/12/21 03:56:05;;;;;;;6.70;5.40;;;;;;;;;;4922897;28;20206;-68
2022/12/21 03:58:33;;;;;;;6.50;5.80;;;;;;;;;;4914055;28;20226;-68
2022/12/21 04:01:09;;;;;;;7.30;5.70;;;;;;;;;;4927460;28;20229;-69
2022/12/21 04:03:39;;;;;;;6.00;5.40;;;;;;;;;;4924812;28;20581;-68
2022/12/21 04:06:09;;;;;;;8.93;6.40;;;;;;;;;;4920339;28;20348;-69
2022/12/21 04:08:37;;;;;;;11.83;8.27;;;;;;;;;;4925864;28;20228;-70
2022/12/21 04:11:05;;;;;;;17.00;9.40;;;;;;;;;;4897950;28;20328;-67
2022/12/21 04:13:34;;;;;;;12.43;10.37;;;;;;;;;;4925849;28;20784;-68
2022/12/21 04:16:04;;;;;;;10.87;8.93;;;;;;;;;;4924654;28;20428;-68
2022/12/21 04:21:19;;;;;;;8.80;6.17;;;;;;;;;;4928285;28;20279;-70
2022/12/21 04:29:19;;;;;;;7.27;6.27;;;;;;;;;;4926301;28;20307;-69
2022/12/21 04:31:46;;;;;;;6.80;5.87;;;;;;;;;;4926766;28;20236;-69
2022/12/21 04:34:13;;;;;;;8.83;6.23;;;;;;;;;;4922633;28;20208;-69
2022/12/21 04:39:26;;;;;;;10.37;7.63;;;;;;;;;;4923778;28;20226;-70
2022/12/21 04:41:54;;;;;;;14.97;8.20;;;;;;;;;;4925509;28;20234;-69
2022/12/21 04:44:21;;;;;;;7.70;6.83;;;;;;;;;;4929316;28;20209;-70
2022/12/21 04:46:48;;;;;;;10.53;6.97;;;;;;;;;;4922233;28;20209;-68
2022/12/21 04:49:15;;;;;;;10.13;7.10;;;;;;;;;;4926656;28;20784;-70
2022/12/21 04:51:43;;;;;;;5.83;5.20;;;;;;;;;;4938444;28;20311;-69
2022/12/21 04:54:10;;;;;;;7.50;5.90;;;;;;;;;;4956762;28;20296;-67
2022/12/21 04:56:37;;;;;;;7.07;6.23;;;;;;;;;;4951678;28;20304;-69
2022/12/21 04:59:04;;;;;;;7.13;6.13;;;;;;;;;;4959876;28;20267;-67
2022/12/21 05:01:31;;;;;;;8.43;6.30;;;;;;;;;;4947195;28;20234;-68
2022/12/21 05:03:59;;;;;;;8.90;7.50;;;;;;;;;;4934514;28;20665;-70
2022/12/21 05:06:27;;;;;;;11.83;8.23;;;;;;;;;;4920778;28;20219;-69
2022/12/21 05:08:54;;;;;;;19.47;11.20;;;;;;;;;;4923594;28;20300;-69
2022/12/21 05:11:23;;;;;;;14.50;9.40;;;;;;;;;;4928346;28;20244;-70
2022/12/21 05:13:51;;;;;;;13.03;9.37;;;;;;;;;;4920620;28;20209;-69
2022/12/21 05:16:19;;;;;;;13.43;8.83;;;;;;;;;;4928049;28;20217;-69
2022/12/21 05:18:48;;;;;;;13.70;8.33;;;;;;;;;;4925382;28;20751;-69
2022/12/21 05:21:16;;;;;;;10.93;8.33;;;;;;;;;;4915341;28;20611;-68
2022/12/21 05:23:43;;;;;;;10.87;8.00;;;;;;;;;;4907463;28;20302;-69
2022/12/21 05:26:11;;;;;;;9.87;7.57;;;;;;;;;;4910034;28;20209;-69
2022/12/21 05:28:43;;;;;;;9.67;7.00;;;;;;;;;;4914505;28;23220;-68
2022/12/21 05:31:11;;;;;;;10.37;7.17;;;;;;;;;;4922141;28;20260;-68
2022/12/21 05:33:38;;;;;;;8.90;7.50;;;;;;;;;;4921368;28;20295;-70
2022/12/21 05:36:07;;;;;;;8.73;7.37;;;;;;;;;;4923473;28;20777;-69
2022/12/21 05:38:34;;;;;;;9.67;7.20;;;;;;;;;;4917645;28;20940;-70
2022/12/21 05:41:02;;;;;;;11.10;7.20;;;;;;;;;;4917137;28;20580;-69
2022/12/21 05:43:30;;;;;;;10.17;7.00;;;;;;;;;;4915501;28;20737;-69
2022/12/21 05:46:04;;;;;;;11.20;7.93;;;;;;;;;;4928997;28;20268;-70
2022/12/21 05:48:31;;;;;;;10.73;7.90;;;;;;;;;;4908306;28;20203;-71
2022/12/21 05:50:59;;;;;;;10.87;9.23;;;;;;;;;;4921039;28;20225;-71
2022/12/21 05:53:26;;;;;;;15.13;8.33;;;;;;;;;;4923979;28;20317;-78
2022/12/21 05:55:53;;;;;;;12.87;8.90;;;;;;;;;;4915535;28;20207;-76
2022/12/21 05:58:20;;;;;;;11.87;9.00;;;;;;;;;;4916331;28;22827;-75
2022/12/21 06:00:48;;;;;;;13.23;9.83;;;;;;;;;;4930215;28;20236;-75
2022/12/21 06:03:15;;;;;;;13.33;10.00;;;;;;;;;;4926124;28;20206;-75
2022/12/21 06:05:42;;;;;;;18.80;11.87;;;;;;;;;;4922450;28;20543;-74
2022/12/21 06:08:09;;;;;;;14.03;10.23;;;;;;;;;;4925645;28;20547;-74
2022/12/21 06:10:37;;;;;;;12.60;9.63;;;;;;;;;;4917094;28;20243;-75
2022/12/21 06:13:05;;;;;;;13.20;8.90;;;;;;;;;;4882102;28;20224;-75
2022/12/21 06:15:33;;;;;;;11.67;9.13;;;;;;;;;;4902718;28;20296;-75
2022/12/21 06:18:01;;;;;;;12.27;8.77;;;;;;;;;;4889702;28;20578;-74
2022/12/21 06:20:31;;;;;;;11.53;9.60;;;;;;;;;;4899910;28;20238;-75
2022/12/21 06:22:58;;;;;;;10.57;9.47;;;;;;;;;;4897517;28;20531;-74
2022/12/21 06:25:25;;;;;;;13.67;9.37;;;;;;;;;;4867779;28;20209;-76
2022/12/21 06:27:53;;;;;;;15.70;10.50;;;;;;;;;;4889683;28;20572;-74
2022/12/21 06:30:20;;;;;;;15.33;11.63;;;;;;;;;;4888364;28;20259;-74
2022/12/21 06:32:47;;;;;;;16.53;13.10;;;;;;;;;;4886842;28;20690;-76
2022/12/21 06:35:14;;;;;;;15.77;12.37;;;;;;;;;;4896446;28;20332;-77
2022/12/21 06:37:41;;;;;;;16.73;12.53;;;;;;;;;;4896299;28;20210;-77
2022/12/21 06:40:09;;;;;;;18.47;12.07;;;;;;;;;;4880299;28;23983;-76
2022/12/21 06:42:36;;;;;;;18.80;13.30;;;;;;;;;;4886199;28;20711;-75
2022/12/21 06:45:03;;;;;;;20.83;13.80;;;;;;;;;;4884958;28;20809;-75
2022/12/21 06:47:31;;;;;;;21.53;14.00;;;;;;;;;;4906343;28;20872;-76
2022/12/21 06:49:58;;;;;;;20.43;14.57;;;;;;;;;;4909703;28;20289;-76
2022/12/21 06:52:25;;;;;;;20.33;13.57;;;;;;;;;;4925562;28;20683;-77
2022/12/21 06:54:53;;;;;;;21.23;14.10;;;;;;;;;;4945186;29;20661;-75
2022/12/21 06:57:20;;;;;;;21.03;15.30;;;;;;;;;;4942627;29;20301;-74
2022/12/21 06:59:47;;;;;;;23.43;14.73;;;;;;;;;;4941533;28;20285;-75
2022/12/21 07:02:14;;;;;;;20.83;15.53;;;;;;;;;;4933996;28;20210;-76
2022/12/21 07:04:42;;;;;;;21.87;15.53;;;;;;;;;;4907071;28;20217;-74
2022/12/21 07:07:09;;;;;;;19.67;15.70;;;;;;;;;;4905947;28;21203;-74
2022/12/21 07:09:36;;;;;;;22.97;15.10;;;;;;;;;;4910999;28;20218;-74
2022/12/21 07:12:04;;;;;;;21.17;15.57;;;;;;;;;;4912989;28;20689;-74
2022/12/21 07:14:31;;;;;;;23.07;16.60;;;;;;;;;;4927510;28;20212;-73
2022/12/21 07:16:58;;;;;;;29.83;17.97;;;;;;;;;;4904074;28;20235;-75
2022/12/21 07:19:26;;;;;;;26.17;18.50;;;;;;;;;;4902678;28;20230;-75
2022/12/21 07:21:53;;;;;;;28.67;18.60;;;;;;;;;;4915948;28;20225;-77
2022/12/21 07:24:21;;;;;;;25.23;16.70;;;;;;;;;;4912461;28;20803;-77
2022/12/21 07:26:48;;;;;;;31.67;19.10;;;;;;;;;;4901453;28;21988;-74
2022/12/21 07:29:15;;;;;;;37.03;21.47;;;;;;;;;;4888448;28;20205;-74
2022/12/21 07:31:44;;;;;;;34.37;21.33;;;;;;;;;;4925517;28;20328;-74
2022/12/21 07:34:11;;;;;;;30.13;18.63;;;;;;;;;;4934394;28;20216;-74
2022/12/21 07:36:39;;;;;;;28.13;18.33;;;;;;;;;;4941570;28;20202;-73
2022/12/21 07:39:06;;;;;;;26.37;17.73;;;;;;;;;;4941769;28;20256;-76
2022/12/21 07:41:33;;;;;;;22.37;16.73;;;;;;;;;;4923675;28;20633;-74
2022/12/21 07:44:00;;;;;;;22.63;16.10;;;;;;;;;;4900774;28;22225;-77
2022/12/21 07:46:28;;;;;;;22.23;16.17;;;;;;;;;;4897971;28;21000;-76
2022/12/21 07:48:55;;;;;;;22.93;16.67;;;;;;;;;;4901600;28;20275;-75
2022/12/21 07:51:23;;;;;;;29.37;17.73;;;;;;;;;;4907825;28;20544;-77
2022/12/21 07:53:50;;;;;;;24.80;16.53;;;;;;;;;;4903470;28;20220;-75
2022/12/21 07:56:18;;;;;;;24.43;15.97;;;;;;;;;;4914806;28;20401;-76
2022/12/21 07:58:46;;;;;;;23.60;16.73;;;;;;;;;;4903391;28;20215;-76
2022/12/21 08:01:14;;;;;;;24.77;16.63;;;;;;;;;;4924491;28;20345;-75
2022/12/21 08:03:44;;;;;;;19.33;15.33;;;;;;;;;;4918195;28;20271;-75
2022/12/21 08:06:13;;;;;;;22.97;15.70;;;;;;;;;;4919697;28;20220;-74
2022/12/21 08:08:40;;;;;;;21.53;15.83;;;;;;;;;;4916909;28;20280;-75
2022/12/21 08:11:18;;;;;;;21.97;16.27;;;;;;;;;;4915573;28;20237;-75
2022/12/21 08:13:46;;;;;;;21.30;15.93;;;;;;;;;;4920121;28;20212;-74
2022/12/21 08:16:14;;;;;;;20.57;15.53;;;;;;;;;;4907071;28;21430;-74
2022/12/21 08:18:42;;;;;;;20.87;15.77;;;;;;;;;;4901930;28;20220;-75
2022/12/21 08:21:09;;;;;;;24.20;16.27;;;;;;;;;;4889120;28;20865;-73
2022/12/21 08:23:37;;;;;;;18.90;14.20;;;;;;;;;;4903396;28;20209;-76
2022/12/21 08:26:05;;;;;;;21.30;15.93;;;;;;;;;;4897932;28;20205;-74
2022/12/21 08:28:33;;;;;;;21.23;15.47;;;;;;;;;;4901754;28;20205;-73
2022/12/21 08:31:03;;;;;;;23.00;15.27;;;;;;;;;;4903483;28;22870;-77
2022/12/21 08:33:31;;;;;;;21.07;14.93;;;;;;;;;;4909021;28;20209;-74
2022/12/21 08:35:58;;;;;;;19.83;15.50;;;;;;;;;;4898570;28;21082;-74
2022/12/21 08:38:26;;;;;;;22.10;15.70;;;;;;;;;;4918802;28;20205;-75
2022/12/21 08:41:14;;;;;;;21.67;16.43;;;;;;;;;;4909557;28;20236;-74
2022/12/21 08:43:41;;;;;;;20.77;15.00;;;;;;;;;;4904733;28;20292;-73
2022/12/21 08:46:10;;;;;;;23.37;15.17;;;;;;;;;;4926096;28;20209;-73
2022/12/21 08:48:37;;;;;;;19.23;15.23;;;;;;;;;;4916606;28;22901;-75
2022/12/21 08:51:06;;;;;;;24.30;16.90;;;;;;;;;;4922698;28;20348;-72
2022/12/21 08:53:34;;;;;;;20.50;15.27;;;;;;;;;;4950914;28;20241;-74
2022/12/21 08:56:01;;;;;;;21.60;15.37;;;;;;;;;;4954696;28;20495;-74
2022/12/21 08:58:29;;;;;;;19.30;15.20;;;;;;;;;;4916865;28;20280;-73
2022/12/21 09:00:56;;;;;;;21.23;13.80;;;;;;;;;;4947771;28;20320;-75
2022/12/21 09:03:26;;;;;;;20.90;14.47;;;;;;;;;;4925655;28;20224;-72
2022/12/21 09:05:55;;;;;;;18.83;14.07;;;;;;;;;;4923377;28;20335;-73
2022/12/21 09:08:22;;;;;;;23.00;14.03;;;;;;;;;;4925562;28;20224;-74
2022/12/21 09:10:49;;;;;;;19.63;13.97;;;;;;;;;;4921108;28;20247;-74
2022/12/21 09:13:16;;;;;;;17.63;13.50;;;;;;;;;;4928557;28;20223;-74
2022/12/21 09:15:44;;;;;;;18.10;14.17;;;;;;;;;;4918469;28;20209;-73
2022/12/21 09:18:11;;;;;;;18.27;13.73;;;;;;;;;;4899559;28;20280;-72
2022/12/21 09:20:39;;;;;;;18.23;12.97;;;;;;;;;;4898373;28;20240;-75
2022/12/21 09:23:06;;;;;;;17.03;13.03;;;;;;;;;;4921244;28;20216;-74
2022/12/21 09:25:34;;;;;;;17.50;11.60;;;;;;;;;;4907281;28;20585;-74
2022/12/21 09:28:01;;;;;;;15.60;12.07;;;;;;;;;;4898053;28;22001;-77
2022/12/21 09:30:29;;;;;;;17.30;11.77;;;;;;;;;;4909077;28;20235;-74
2022/12/21 09:32:57;;;;;;;13.47;11.17;;;;;;;;;;4893623;28;20221;-75
2022/12/21 09:35:24;;;;;;;16.03;12.10;;;;;;;;;;4903434;28;20248;-75
2022/12/21 09:37:52;;;;;;;13.60;10.47;;;;;;;;;;4910085;28;20256;-75
2022/12/21 09:40:20;;;;;;;15.37;11.63;;;;;;;;;;4907476;28;21404;-74
2022/12/21 09:43:06;;;;;;;13.27;10.07;;;;;;;;;;4936156;28;20231;-73
2022/12/21 09:46:00;;;;;;;15.70;11.03;;;;;;;;;;4923554;28;20208;-78
2022/12/21 09:48:30;;;;;;;11.57;9.93;;;;;;;;;;4931510;28;20581;-76
2022/12/21 09:51:00;;;;;;;13.37;10.27;;;;;;;;;;4929651;28;20434;-74
2022/12/21 09:53:34;;;;;;;11.30;9.43;;;;;;;;;;4936013;28;20201;-74
2022/12/21 09:56:01;;;;;;;13.23;10.30;;;;;;;;;;4918811;28;20219;-74
2022/12/21 09:58:36;;;;;;;12.17;10.03;;;;;;;;;;4930351;28;20272;-77
2022/12/21 10:01:10;;;;;;;9.53;8.50;;;;;;;;;;4915489;28;21680;-77
2022/12/21 10:03:45;;;;;;;11.50;8.73;;;;;;;;;;4895062;28;20661;-77
2022/12/21 10:06:18;;;;;;;12.33;8.80;;;;;;;;;;4908238;28;20351;-75
2022/12/21 10:09:04;;;;;;;11.70;9.20;;;;;;;;;;4912381;28;20219;-74
2022/12/21 10:11:41;;;;;;;13.50;8.93;;;;;;;;;;4896364;28;20760;-76
2022/12/21 10:14:08;;;;;;;10.83;9.03;;;;;;;;;;4914528;28;20208;-76
2022/12/21 10:16:44;;;;;;;10.10;8.57;;;;;;;;;;4913913;28;20219;-77
2022/12/21 10:19:34;;;;;;;12.93;9.47;;;;;;;;;;4897954;28;20213;-77
2022/12/21 10:22:17;;;;;;;10.87;9.50;;;;;;;;;;4906659;28;20306;-76
2022/12/21 10:24:50;;;;;;;12.40;9.93;;;;;;;;;;4917835;28;22236;-76
2022/12/21 10:27:21;;;;;;;12.43;10.30;;;;;;;;;;4914667;28;20211;-77
2022/12/21 10:29:52;;;;;;;12.67;9.80;;;;;;;;;;4913090;28;20205;-75
2022/12/21 10:32:19;;;;;;;12.67;9.57;;;;;;;;;;4917568;28;20700;-77
2022/12/21 10:34:48;;;;;;;12.83;9.57;;;;;;;;;;4910114;28;20212;-77
2022/12/21 10:37:17;;;;;;;11.90;10.23;;;;;;;;;;4903983;28;20631;-78
2022/12/21 10:39:45;;;;;;;12.13;10.20;;;;;;;;;;4910950;28;22381;-76
2022/12/21 10:42:21;;;;;;;12.30;10.63;;;;;;;;;;4910657;28;20209;-75
2022/12/21 10:44:50;;;;;;;12.67;9.40;;;;;;;;;;4916033;28;20207;-76
2022/12/21 10:47:20;;;;;;;12.13;10.33;;;;;;;;;;4919841;28;21118;-74
2022/12/21 10:49:50;;;;;;;12.90;10.17;;;;;;;;;;4898905;28;20209;-75
2022/12/21 10:52:32;;;;;;;13.63;10.70;;;;;;;;;;4935765;28;20296;-76
2022/12/21 10:55:00;;;;;;;11.27;9.70;;;;;;;;;;4957208;28;20628;-75
2022/12/21 10:57:32;;;;;;;12.77;10.50;;;;;;;;;;4945655;28;20211;-73
2022/12/21 11:00:04;;;;;;;12.20;10.17;;;;;;;;;;4954518;28;20248;-74
2022/12/21 11:02:35;;;;;;;11.87;9.93;;;;;;;;;;4937918;28;20202;-74
2022/12/21 11:05:03;;;;;;;11.47;9.80;;;;;;;;;;4919326;28;20336;-75
2022/12/21 11:07:31;;;;;;;10.67;9.57;;;;;;;;;;4930489;28;20209;-77
2022/12/21 11:10:28;;;;;;;11.67;9.83;;;;;;;;;;4929571;28;20664;-76
2022/12/21 11:13:16;;;;;;;13.03;9.63;;;;;;;;;;4906902;28;20213;-74
2022/12/21 11:15:59;;;;;;;11.00;9.73;;;;;;;;;;4914173;28;20305;-77
2022/12/21 11:18:46;;;;;;;10.33;9.00;;;;;;;;;;4882730;28;22399;-75
2022/12/21 11:21:22;;;;;;;9.17;8.27;;;;;;;;;;4909442;28;20241;-74
2022/12/21 11:23:53;;;;;;;9.43;8.43;;;;;;;;;;4903061;28;20562;-74
2022/12/21 11:26:22;;;;;;;10.50;8.93;;;;;;;;;;4899845;28;20300;-74
2022/12/21 11:28:49;;;;;;;10.20;9.20;;;;;;;;;;4909929;28;20286;-73
2022/12/21 11:31:16;;;;;;;9.47;8.57;;;;;;;;;;4923010;28;22137;-75
2022/12/21 11:33:45;;;;;;;8.77;7.87;;;;;;;;;;4921371;29;20220;-75
2022/12/21 11:36:14;;;;;;;8.50;7.70;;;;;;;;;;4921300;29;20216;-79
2022/12/21 11:38:42;;;;;;;7.63;6.93;;;;;;;;;;4914957;28;20214;-79
2022/12/21 11:41:15;;;;;;;7.50;6.80;;;;;;;;;;4914155;28;20273;-78
2022/12/21 11:43:48;;;;;;;7.40;6.70;;;;;;;;;;4888652;28;20975;-79
2022/12/21 11:46:18;;;;;;;6.87;6.23;;;;;;;;;;4905854;28;20659;-78
2022/12/21 11:49:20;;;;;;;6.53;5.93;;;;;;;;;;4909265;28;20212;-76
2022/12/21 11:51:55;;;;;;;7.37;6.63;;;;;;;;;;4909430;28;20253;-78
2022/12/21 11:54:29;;;;;;;5.70;5.07;;;;;;;;;;4879400;28;20886;-77
2022/12/21 11:56:59;;;;;;;5.40;4.90;;;;;;;;;;4890550;28;20244;-80
2022/12/21 11:59:45;;;;;;;5.00;4.60;;;;;;;;;;4889010;28;20828;-76
2022/12/21 12:02:16;;;;;;;5.40;4.90;;;;;;;;;;4885102;28;20212;-78
2022/12/21 12:05:10;;;;;;;6.27;5.20;;;;;;;;;;4869316;28;20213;-75
2022/12/21 12:07:41;;;;;;;6.30;5.70;;;;;;;;;;4871143;28;20221;-76
2022/12/21 12:10:08;;;;;;;5.70;4.60;;;;;;;;;;4881722;28;20698;-75
2022/12/21 12:12:44;;;;;;;8.90;5.63;;;;;;;;;;4907959;28;21497;-77
2022/12/21 12:15:14;;;;;;;5.03;4.47;;;;;;;;;;4917489;28;20869;-76
2022/12/21 12:18:02;;;;;;;4.70;4.30;;;;;;;;;;4881636;28;20215;-74
2022/12/21 12:20:48;;;;;;;3.60;3.40;;;;;;;;;;4886714;28;20229;-73
2022/12/21 12:23:23;;;;;;;3.77;3.47;;;;;;;;;;4899176;28;20584;-75
2022/12/21 12:25:54;;;;;;;3.10;2.90;;;;;;;;;;4903066;28;20541;-74
2022/12/21 12:28:22;;;;;;;3.40;3.10;;;;;;;;;;4896906;28;20336;-74
2022/12/21 12:30:52;;;;;;;3.00;2.80;;;;;;;;;;4915052;28;20221;-76
2022/12/21 12:33:31;;;;;;;2.43;2.33;;;;;;;;;;4912427;28;20299;-73
2022/12/21 12:35:58;;;;;;;2.40;2.30;;;;;;;;;;4900658;28;20209;-75
2022/12/21 12:38:25;;;;;;;2.00;1.90;;;;;;;;;;4928004;28;20357;-74
2022/12/21 12:41:10;;;;;;;2.03;1.93;;;;;;;;;;4923101;28;20452;-75
2022/12/21 12:43:38;;;;;;;2.00;1.80;;;;;;;;;;4910036;28;20215;-76
2022/12/21 12:46:20;;;;;;;2.20;2.10;;;;;;;;;;4930323;28;20200;-75
2022/12/21 12:48:56;;;;;;;2.27;2.17;;;;;;;;;;4926180;28;20688;-73
2022/12/21 12:51:31;;;;;;;2.63;2.43;;;;;;;;;;4920547;28;20243;-74
2022/12/21 12:54:02;;;;;;;2.33;2.23;;;;;;;;;;4956394;28;20211;-74
2022/12/21 12:56:35;;;;;;;2.53;2.33;;;;;;;;;;4955668;28;20201;-73
2022/12/21 12:59:11;;;;;;;2.30;2.20;;;;;;;;;;4949225;28;20642;-72
2022/12/21 13:01:43;;;;;;;2.93;2.73;;;;;;;;;;4956069;28;20623;-73
2022/12/21 13:04:11;;;;;;;2.77;2.57;;;;;;;;;;4950560;28;20728;-75
2022/12/21 13:06:47;;;;;;;4.53;2.90;;;;;;;;;;4928264;28;20204;-77
2022/12/21 13:09:17;;;;;;;3.40;3.20;;;;;;;;;;4930526;28;20212;-72
2022/12/21 13:11:55;;;;;;;3.80;3.50;;;;;;;;;;4930634;28;20246;-74
2022/12/21 13:14:35;;;;;;;3.93;3.63;;;;;;;;;;4929550;28;20212;-73
2022/12/21 13:17:10;;;;;;;4.73;3.60;;;;;;;;;;4929504;28;20216;-76
2022/12/21 13:19:39;;;;;;;3.93;3.63;;;;;;;;;;4911625;28;21464;-75
2022/12/21 13:22:15;;;;;;;3.67;3.37;;;;;;;;;;4930073;28;23606;-79
2022/12/21 13:24:55;;;;;;;3.97;3.67;;;;;;;;;;4925393;28;20210;-73
2022/12/21 13:27:28;;;;;;;3.60;3.40;;;;;;;;;;4928654;28;20211;-76
2022/12/21 13:30:05;;;;;;;4.30;3.80;;;;;;;;;;4924040;28;20360;-73
2022/12/21 13:32:39;;;;;;;3.80;3.50;;;;;;;;;;4932802;28;20204;-73
2022/12/21 13:35:25;;;;;;;3.73;3.53;;;;;;;;;;4926298;28;20209;-74
2022/12/21 13:38:01;;;;;;;4.20;3.80;;;;;;;;;;4927989;28;20213;-73
2022/12/21 13:40:39;;;;;;;5.13;4.73;;;;;;;;;;4916980;28;20225;-74
2022/12/21 13:43:17;;;;;;;4.83;4.43;;;;;;;;;;4932462;28;20879;-76
2022/12/21 13:45:50;;;;;;;5.00;4.60;;;;;;;;;;4923756;28;20252;-74
2022/12/21 13:48:20;;;;;;;5.80;4.77;;;;;;;;;;4920314;28;20208;-77
2022/12/21 13:50:58;;;;;;;4.30;4.00;;;;;;;;;;4898648;28;21165;-77
2022/12/21 13:53:43;;;;;;;4.33;4.03;;;;;;;;;;4912849;28;20215;-76
2022/12/21 13:56:10;;;;;;;4.50;4.10;;;;;;;;;;4920693;28;20643;-75
2022/12/21 13:58:43;;;;;;;4.00;3.70;;;;;;;;;;4919369;28;20384;-78
2022/12/21 14:01:11;;;;;;;4.43;4.03;;;;;;;;;;4921789;28;20232;-76
2022/12/21 14:04:02;;;;;;;4.30;3.90;;;;;;;;;;4923714;28;20198;-72
2022/12/21 14:06:29;;;;;;;6.40;4.00;;;;;;;;;;4932737;28;20222;-74
2022/12/21 14:09:04;;;;;;;4.47;4.07;;;;;;;;;;4926587;28;20578;-74
2022/12/21 14:11:50;;;;;;;2.90;2.70;;;;;;;;;;4916740;28;20348;-75
2022/12/21 14:14:37;;;;;;;2.40;2.20;;;;;;;;;;4927812;28;20223;-72
2022/12/21 14:17:16;;;;;;;2.70;2.50;;;;;;;;;;4938531;28;20204;-74
2022/12/21 14:19:53;;;;;;;3.10;2.90;;;;;;;;;;4936869;28;20556;-72
2022/12/21 14:22:39;;;;;;;3.60;3.30;;;;;;;;;;4937049;28;20729;-74
2022/12/21 14:25:17;;;;;;;5.47;3.47;;;;;;;;;;4929290;28;20215;-72
2022/12/21 14:28:00;;;;;;;3.93;3.63;;;;;;;;;;4934267;28;20212;-74
2022/12/21 14:30:29;;;;;;;4.47;4.03;;;;;;;;;;4931505;28;20351;-73
2022/12/21 14:33:03;;;;;;;5.00;4.60;;;;;;;;;;4931664;28;20224;-73
2022/12/21 14:35:32;;;;;;;4.80;4.40;;;;;;;;;;4924960;28;20756;-72
2022/12/21 14:38:22;;;;;;;4.77;4.37;;;;;;;;;;4934302;28;20211;-72
2022/12/21 14:41:16;;;;;;;5.50;5.00;;;;;;;;;;4932329;28;20428;-73
2022/12/21 14:44:08;;;;;;;6.67;6.10;;;;;;;;;;4935613;28;20206;-74
2022/12/21 14:46:39;;;;;;;7.90;6.20;;;;;;;;;;4934845;28;20721;-73
2022/12/21 14:49:11;;;;;;;8.90;7.83;;;;;;;;;;4943041;28;20212;-73
2022/12/21 14:51:49;;;;;;;14.57;11.07;;;;;;;;;;4929933;28;20232;-73
2022/12/21 14:54:19;;;;;;;10.40;7.30;;;;;;;;;;4942563;28;20209;-73
2022/12/21 14:57:08;;;;;;;9.27;7.63;;;;;;;;;;4954410;28;20217;-73
2022/12/21 14:59:42;;;;;;;10.20;8.40;;;;;;;;;;4956820;28;20697;-74
2022/12/21 15:02:38;;;;;;;8.93;7.87;;;;;;;;;;4941363;28;20319;-75
2022/12/21 15:05:23;;;;;;;8.13;7.33;;;;;;;;;;4918272;28;20209;-71
2022/12/21 15:08:02;;;;;;;8.57;7.60;;;;;;;;;;4950494;28;20228;-71
2022/12/21 15:10:35;;;;;;;7.87;7.03;;;;;;;;;;4955118;28;20278;-72
2022/12/21 15:13:34;;;;;;;8.43;7.53;;;;;;;;;;4942580;28;20301;-71